sensor_id;sensor_type;location;lat;lon;timestamp;pressure;altitude;pressure_sealevel;temperature;humidity
58973;BME280;44750;52.040;7.472;2022-12-18T00:02:28;101543.13;;;-6.84;92.34
58973;BME280;44750;52.040;7.472;2022-12-18T00:07:29;101532.66;;;-6.87;93.69
58973;BME280;44750;52.040;7.472;2022-12-18T00:12:29;101522.97;;;-6.87;94.82
58973;BME280;44750;52.040;7.472;2022-12-18T00:17:29;101501.34;;;-7.09;97.16
58973;BME280;44750;52.040;7.472;2022-12-18T00:22:29;101498.81;;;-7.18;99.20
58973;BME280;44750;52.040;7.472;2022-12-18T00:27:29;101481.56;;;-7.38;100.00
58973;BME280;44750;52.040;7.472;2022-12-18T00:32:30;101478.94;;;-7.38;100.00
58973;BME280;44750;52.040;7.472;2022-12-18T00:37:30;101478.03;;;-7.35;100.00
58973;BME280;44750;52.040;7.472;2022-12-18T00:42:30;101466.66;;;-7.39;100.00
58973;BME280;44750;52.040;7.472;2022-12-18T00:47:31;101474.47;;;-7.34;100.00
58973;BME280;44750;52.040;7.472;2022-12-18T00:52:31;101474.44;;;-7.30;100.00
58973;BME280;44750;52.040;7.472;2022-12-18T00:57:31;101481.31;;;-7.18;100.00
58973;BME280;44750;52.040;7.472;2022-12-18T01:02:31;101477.66;;;-7.08;100.00
58973;BME280;44750;52.040;7.472;2022-12-18T01:07:32;101461.75;;;-7.01;100.00
58973;BME280;44750;52.040;7.472;2022-12-18T01:12:32;101472.00;;;-6.83;100.00
58973;BME280;44750;52.040;7.472;2022-12-18T01:17:33;101452.75;;;-6.86;100.00
58973;BME280;44750;52.040;7.472;2022-12-18T01:22:33;101420.69;;;-7.13;100.00
58973;BME280;44750;52.040;7.472;2022-12-18T01:27:34;101423.47;;;-7.23;100.00
58973;BME280;44750;52.040;7.472;2022-12-18T01:32:34;101451.34;;;-7.09;100.00
58973;BME280;44750;52.040;7.472;2022-12-18T01:37:34;101434.78;;;-7.14;100.00
58973;BME280;44750;52.040;7.472;2022-12-18T01:42:35;101405.13;;;-7.27;100.00
58973;BME280;44750;52.040;7.472;2022-12-18T01:47:39;101402.69;;;-7.40;100.00
58973;BME280;44750;52.040;7.472;2022-12-18T01:52:42;101400.19;;;-7.50;100.00
58973;BME280;44750;52.040;7.472;2022-12-18T01:57:43;101426.41;;;-7.44;100.00
58973;BME280;44750;52.040;7.472;2022-12-18T02:08:10;101447.75;;;-7.02;100.00
58973;BME280;44750;52.040;7.472;2022-12-18T02:13:28;101432.69;;;-6.94;100.00
58973;BME280;44750;52.040;7.472;2022-12-18T02:18:41;101410.03;;;-7.04;100.00
58973;BME280;44750;52.040;7.472;2022-12-18T02:23:56;101398.56;;;-7.00;100.00
58973;BME280;44750;52.040;7.472;2022-12-18T02:29:06;101395.03;;;-6.99;100.00
58973;BME280;44750;52.040;7.472;2022-12-18T02:34:09;101399.28;;;-6.89;100.00
58973;BME280;44750;52.040;7.472;2022-12-18T02:39:13;101398.25;;;-6.80;100.00
58973;BME280;44750;52.040;7.472;2022-12-18T02:44:15;101407.03;;;-6.79;100.00
58973;BME280;44750;52.040;7.472;2022-12-18T03:00:14;101392.06;;;-6.77;100.00
58973;BME280;44750;52.040;7.472;2022-12-18T03:05:22;101370.50;;;-6.99;100.00
58973;BME280;44750;52.040;7.472;2022-12-18T03:10:28;101353.78;;;-6.98;100.00
58973;BME280;44750;52.040;7.472;2022-12-18T03:15:33;101372.03;;;-6.86;100.00
58973;BME280;44750;52.040;7.472;2022-12-18T03:20:35;101371.81;;;-6.74;100.00
58973;BME280;44750;52.040;7.472;2022-12-18T03:25:41;101391.69;;;-6.54;100.00
58973;BME280;44750;52.040;7.472;2022-12-18T03:30:44;101392.47;;;-6.49;100.00
58973;BME280;44750;52.040;7.472;2022-12-18T03:35:46;101397.50;;;-6.36;100.00
58973;BME280;44750;52.040;7.472;2022-12-18T03:56:29;101385.81;;;-6.22;100.00
58973;BME280;44750;52.040;7.472;2022-12-18T04:01:39;101355.25;;;-6.30;100.00
58973;BME280;44750;52.040;7.472;2022-12-18T04:06:41;101356.03;;;-6.27;100.00
58973;BME280;44750;52.040;7.472;2022-12-18T04:11:42;101363.84;;;-6.20;100.00
58973;BME280;44750;52.040;7.472;2022-12-18T04:16:43;101373.34;;;-6.13;100.00
58973;BME280;44750;52.040;7.472;2022-12-18T04:21:43;101373.13;;;-6.02;100.00
58973;BME280;44750;52.040;7.472;2022-12-18T04:26:43;101359.97;;;-6.04;100.00
58973;BME280;44750;52.040;7.472;2022-12-18T04:31:43;101351.38;;;-6.12;100.00
58973;BME280;44750;52.040;7.472;2022-12-18T04:36:43;101332.19;;;-6.19;100.00
58973;BME280;44750;52.040;7.472;2022-12-18T04:41:44;101349.66;;;-6.15;100.00
58973;BME280;44750;52.040;7.472;2022-12-18T04:46:44;101354.13;;;-6.18;100.00
58973;BME280;44750;52.040;7.472;2022-12-18T04:51:44;101346.06;;;-6.11;100.00
58973;BME280;44750;52.040;7.472;2022-12-18T04:56:44;101330.50;;;-6.23;100.00
58973;BME280;44750;52.040;7.472;2022-12-18T05:01:45;101352.34;;;-6.16;100.00
58973;BME280;44750;52.040;7.472;2022-12-18T05:06:45;101365.31;;;-6.07;100.00
58973;BME280;44750;52.040;7.472;2022-12-18T05:11:45;101357.41;;;-6.07;100.00
58973;BME280;44750;52.040;7.472;2022-12-18T05:16:45;101362.22;;;-5.85;100.00
58973;BME280;44750;52.040;7.472;2022-12-18T05:21:45;101362.09;;;-5.79;100.00
58973;BME280;44750;52.040;7.472;2022-12-18T05:26:46;101339.31;;;-5.83;100.00
58973;BME280;44750;52.040;7.472;2022-12-18T05:31:46;101345.41;;;-5.81;100.00
58973;BME280;44750;52.040;7.472;2022-12-18T05:36:46;101330.72;;;-5.92;100.00
58973;BME280;44750;52.040;7.472;2022-12-18T05:41:47;101357.59;;;-5.74;100.00
58973;BME280;44750;52.040;7.472;2022-12-18T05:46:47;101334.25;;;-5.93;100.00
58973;BME280;44750;52.040;7.472;2022-12-18T05:51:47;101352.56;;;-5.85;100.00
58973;BME280;44750;52.040;7.472;2022-12-18T05:56:47;101348.97;;;-5.84;100.00
58973;BME280;44750;52.040;7.472;2022-12-18T06:01:48;101362.88;;;-5.74;100.00
58973;BME280;44750;52.040;7.472;2022-12-18T06:06:48;101368.91;;;-5.71;100.00
58973;BME280;44750;52.040;7.472;2022-12-18T06:11:51;101362.78;;;-5.71;100.00
58973;BME280;44750;52.040;7.472;2022-12-18T06:16:51;101350.66;;;-5.80;100.00
58973;BME280;44750;52.040;7.472;2022-12-18T06:21:52;101363.06;;;-5.83;100.00
58973;BME280;44750;52.040;7.472;2022-12-18T06:26:53;101360.47;;;-5.87;100.00
58973;BME280;44750;52.040;7.472;2022-12-18T06:31:53;101378.00;;;-5.82;100.00
58973;BME280;44750;52.040;7.472;2022-12-18T06:36:53;101386.72;;;-5.80;100.00
58973;BME280;44750;52.040;7.472;2022-12-18T06:41:53;101375.25;;;-5.78;100.00
58973;BME280;44750;52.040;7.472;2022-12-18T06:46:54;101364.81;;;-5.82;100.00
58973;BME280;44750;52.040;7.472;2022-12-18T06:51:54;101382.28;;;-5.80;100.00
58973;BME280;44750;52.040;7.472;2022-12-18T06:56:57;101358.88;;;-5.94;100.00
58973;BME280;44750;52.040;7.472;2022-12-18T07:01:57;101354.03;;;-6.14;100.00
58973;BME280;44750;52.040;7.472;2022-12-18T07:06:57;101327.47;;;-6.48;100.00
58973;BME280;44750;52.040;7.472;2022-12-18T07:11:58;101317.94;;;-6.54;100.00
58973;BME280;44750;52.040;7.472;2022-12-18T07:16:58;101276.69;;;-7.02;100.00
58973;BME280;44750;52.040;7.472;2022-12-18T07:21:58;101277.06;;;-7.25;100.00
58973;BME280;44750;52.040;7.472;2022-12-18T07:26:58;101267.72;;;-7.43;100.00
58973;BME280;44750;52.040;7.472;2022-12-18T07:31:58;101297.47;;;-7.41;100.00
58973;BME280;44750;52.040;7.472;2022-12-18T07:36:59;101300.09;;;-7.41;100.00
58973;BME280;44750;52.040;7.472;2022-12-18T07:42:00;101308.81;;;-7.36;100.00
58973;BME280;44750;52.040;7.472;2022-12-18T07:47:01;101302.53;;;-7.27;100.00
58973;BME280;44750;52.040;7.472;2022-12-18T07:52:01;101310.31;;;-7.21;100.00
58973;BME280;44750;52.040;7.472;2022-12-18T07:57:01;101322.41;;;-7.08;100.00
58973;BME280;44750;52.040;7.472;2022-12-18T08:02:01;101307.66;;;-7.18;100.00
58973;BME280;44750;52.040;7.472;2022-12-18T08:07:02;101323.09;;;-6.98;100.00
58973;BME280;44750;52.040;7.472;2022-12-18T08:12:02;101327.25;;;-6.84;100.00
58973;BME280;44750;52.040;7.472;2022-12-18T08:17:03;101337.56;;;-6.72;100.00
58973;BME280;44750;52.040;7.472;2022-12-18T08:22:03;101355.66;;;-6.53;100.00
58973;BME280;44750;52.040;7.472;2022-12-18T08:27:03;101343.88;;;-6.34;100.00
58973;BME280;44750;52.040;7.472;2022-12-18T08:32:04;101333.22;;;-6.28;100.00
58973;BME280;44750;52.040;7.472;2022-12-18T08:37:04;101332.09;;;-6.16;100.00
58973;BME280;44750;52.040;7.472;2022-12-18T08:42:04;101303.41;;;-6.30;100.00
58973;BME280;44750;52.040;7.472;2022-12-18T08:47:06;101290.94;;;-6.22;100.00
58973;BME280;44750;52.040;7.472;2022-12-18T08:52:06;101250.25;;;-6.49;100.00
58973;BME280;44750;52.040;7.472;2022-12-18T08:57:06;101267.69;;;-6.43;100.00
58973;BME280;44750;52.040;7.472;2022-12-18T09:02:10;101263.47;;;-6.53;100.00
58973;BME280;44750;52.040;7.472;2022-12-18T09:07:10;101253.84;;;-6.55;100.00
58973;BME280;44750;52.040;7.472;2022-12-18T09:12:10;101255.50;;;-6.49;100.00
58973;BME280;44750;52.040;7.472;2022-12-18T09:17:10;101250.16;;;-6.46;100.00
58973;BME280;44750;52.040;7.472;2022-12-18T09:22:11;101300.03;;;-6.36;100.00
58973;BME280;44750;52.040;7.472;2022-12-18T09:27:11;101298.13;;;-6.30;100.00
58973;BME280;44750;52.040;7.472;2022-12-18T09:32:11;101309.31;;;-6.17;100.00
58973;BME280;44750;52.040;7.472;2022-12-18T09:37:11;101334.44;;;-6.00;100.00
58973;BME280;44750;52.040;7.472;2022-12-18T09:42:20;101324.75;;;-5.98;100.00
58973;BME280;44750;52.040;7.472;2022-12-18T09:47:28;101314.94;;;-5.95;100.00
58973;BME280;44750;52.040;7.472;2022-12-18T09:52:39;101307.00;;;-5.93;100.00
58973;BME280;44750;52.040;7.472;2022-12-18T10:03:15;101331.63;;;-5.54;100.00
58973;BME280;44750;52.040;7.472;2022-12-18T10:08:26;101321.59;;;-5.38;100.00
58973;BME280;44750;52.040;7.472;2022-12-18T10:13:42;101334.47;;;-5.24;100.00
58973;BME280;44750;52.040;7.472;2022-12-18T10:24:27;101324.81;;;-4.89;100.00
58973;BME280;44750;52.040;7.472;2022-12-18T10:29:31;101309.06;;;-4.93;100.00
58973;BME280;44750;52.040;7.472;2022-12-18T10:34:31;101321.97;;;-4.81;100.00
58973;BME280;44750;52.040;7.472;2022-12-18T10:39:31;101300.78;;;-4.79;100.00
58973;BME280;44750;52.040;7.472;2022-12-18T10:44:31;101289.09;;;-4.69;100.00
58973;BME280;44750;52.040;7.472;2022-12-18T10:49:33;101286.59;;;-4.42;100.00
58973;BME280;44750;52.040;7.472;2022-12-18T10:54:35;101289.72;;;-4.29;100.00
58973;BME280;44750;52.040;7.472;2022-12-18T10:59:51;101274.75;;;-4.29;100.00
58973;BME280;44750;52.040;7.472;2022-12-18T11:04:52;101299.56;;;-4.03;98.29
58973;BME280;44750;52.040;7.472;2022-12-18T11:10:04;101298.44;;;-3.94;97.25
58973;BME280;44750;52.040;7.472;2022-12-18T11:15:06;101316.63;;;-3.83;96.39
58973;BME280;44750;52.040;7.472;2022-12-18T11:20:20;101294.50;;;-3.81;95.13
58973;BME280;44750;52.040;7.472;2022-12-18T11:25:22;101291.53;;;-3.70;93.83
58973;BME280;44750;52.040;7.472;2022-12-18T11:30:26;101297.44;;;-3.62;91.96
58973;BME280;44750;52.040;7.472;2022-12-18T11:40:34;101286.69;;;-3.56;89.31
58973;BME280;44750;52.040;7.472;2022-12-18T11:45:40;101305.78;;;-3.46;87.14
58973;BME280;44750;52.040;7.472;2022-12-18T11:50:56;101302.78;;;-3.35;85.42
58973;BME280;44750;52.040;7.472;2022-12-18T12:27:43;101280.63;;;-3.06;77.38
58973;BME280;44750;52.040;7.472;2022-12-18T12:38:13;101264.53;;;-2.99;74.11
58973;BME280;44750;52.040;7.472;2022-12-18T12:48:47;101251.94;;;-2.93;69.91
58973;BME280;44750;52.040;7.472;2022-12-18T12:53:48;101279.56;;;-2.75;67.57
58973;BME280;44750;52.040;7.472;2022-12-18T13:04:23;101273.25;;;-2.71;65.66
58973;BME280;44750;52.040;7.472;2022-12-18T13:09:33;101262.69;;;-2.72;64.89
58973;BME280;44750;52.040;7.472;2022-12-18T13:14:52;101267.66;;;-2.63;63.68
58973;BME280;44750;52.040;7.472;2022-12-18T13:20:10;101254.53;;;-2.66;62.75
58973;BME280;44750;52.040;7.472;2022-12-18T13:25:31;101260.50;;;-2.59;62.11
58973;BME280;44750;52.040;7.472;2022-12-18T13:51:08;101252.50;;;-2.34;61.57
58973;BME280;44750;52.040;7.472;2022-12-18T13:56:08;101263.88;;;-2.30;62.61
58973;BME280;44750;52.040;7.472;2022-12-18T14:01:22;101267.88;;;-2.20;63.30
58973;BME280;44750;52.040;7.472;2022-12-18T14:06:25;101239.59;;;-2.20;64.82
58973;BME280;44750;52.040;7.472;2022-12-18T14:11:25;101223.06;;;-2.26;66.76
58973;BME280;44750;52.040;7.472;2022-12-18T14:16:27;101232.06;;;-2.08;67.08
58973;BME280;44750;52.040;7.472;2022-12-18T14:21:28;101200.44;;;-2.13;69.23
58973;BME280;44750;52.040;7.472;2022-12-18T14:26:31;101199.19;;;-2.04;70.00
58973;BME280;44750;52.040;7.472;2022-12-18T14:31:31;101175.91;;;-1.96;71.61
58973;BME280;44750;52.040;7.472;2022-12-18T14:36:31;101167.81;;;-1.93;73.87
58973;BME280;44750;52.040;7.472;2022-12-18T14:41:32;101146.34;;;-1.87;75.59
58973;BME280;44750;52.040;7.472;2022-12-18T14:51:33;101095.94;;;-1.87;80.52
58973;BME280;44750;52.040;7.472;2022-12-18T14:56:36;101078.38;;;-1.91;83.35
58973;BME280;44750;52.040;7.472;2022-12-18T15:01:44;101061.53;;;-1.90;84.58
58973;BME280;44750;52.040;7.472;2022-12-18T15:06:46;101045.50;;;-1.87;86.91
58973;BME280;44750;52.040;7.472;2022-12-18T15:11:46;101016.56;;;-1.93;88.39
58973;BME280;44750;52.040;7.472;2022-12-18T15:16:51;101010.13;;;-1.87;89.86
58973;BME280;44750;52.040;7.472;2022-12-18T15:21:51;101015.63;;;-1.71;91.32
58973;BME280;44750;52.040;7.472;2022-12-18T15:26:51;100981.06;;;-1.70;92.48
58973;BME280;44750;52.040;7.472;2022-12-18T15:32:00;100945.56;;;-1.67;94.79
58973;BME280;44750;52.040;7.472;2022-12-18T15:37:00;100934.03;;;-1.66;97.09
58973;BME280;44750;52.040;7.472;2022-12-18T15:42:01;100925.13;;;-1.65;99.80
58973;BME280;44750;52.040;7.472;2022-12-18T15:47:01;100917.69;;;-1.57;100.00
58973;BME280;44750;52.040;7.472;2022-12-18T15:52:02;100905.97;;;-1.53;100.00
58973;BME280;44750;52.040;7.472;2022-12-18T15:57:02;100891.28;;;-1.60;100.00
58973;BME280;44750;52.040;7.472;2022-12-18T16:02:11;100874.13;;;-1.53;100.00
58973;BME280;44750;52.040;7.472;2022-12-18T16:07:15;100846.78;;;-1.55;100.00
58973;BME280;44750;52.040;7.472;2022-12-18T16:12:19;100845.97;;;-1.38;100.00
58973;BME280;44750;52.040;7.472;2022-12-18T16:17:20;100811.06;;;-1.47;100.00
58973;BME280;44750;52.040;7.472;2022-12-18T16:22:23;100822.00;;;-1.36;100.00
58973;BME280;44750;52.040;7.472;2022-12-18T16:27:25;100807.78;;;-1.35;100.00
58973;BME280;44750;52.040;7.472;2022-12-18T16:32:25;100785.78;;;-1.37;100.00
58973;BME280;44750;52.040;7.472;2022-12-18T16:37:26;100787.34;;;-1.33;100.00
58973;BME280;44750;52.040;7.472;2022-12-18T16:42:26;100786.66;;;-1.19;100.00
58973;BME280;44750;52.040;7.472;2022-12-18T16:47:26;100749.84;;;-1.27;100.00
58973;BME280;44750;52.040;7.472;2022-12-18T16:52:26;100748.53;;;-1.18;100.00
58973;BME280;44750;52.040;7.472;2022-12-18T16:57:27;100747.53;;;-1.15;100.00
58973;BME280;44750;52.040;7.472;2022-12-18T17:02:27;100750.81;;;-1.28;100.00
58973;BME280;44750;52.040;7.472;2022-12-18T17:07:27;100760.72;;;-1.14;100.00
58973;BME280;44750;52.040;7.472;2022-12-18T17:12:27;100728.94;;;-1.15;100.00
58973;BME280;44750;52.040;7.472;2022-12-18T17:17:28;100704.22;;;-1.18;100.00
58973;BME280;44750;52.040;7.472;2022-12-18T17:22:28;100722.22;;;-1.05;100.00
58973;BME280;44750;52.040;7.472;2022-12-18T17:27:28;100705.56;;;-1.09;100.00
58973;BME280;44750;52.040;7.472;2022-12-18T17:32:29;100712.53;;;-1.06;100.00
58973;BME280;44750;52.040;7.472;2022-12-18T17:37:29;100702.00;;;-1.08;100.00
58973;BME280;44750;52.040;7.472;2022-12-18T17:42:29;100684.53;;;-1.13;100.00
58973;BME280;44750;52.040;7.472;2022-12-18T17:47:29;100683.47;;;-1.09;100.00
58973;BME280;44750;52.040;7.472;2022-12-18T17:52:29;100673.88;;;-1.12;100.00
58973;BME280;44750;52.040;7.472;2022-12-18T17:57:31;100668.13;;;-1.04;100.00
58973;BME280;44750;52.040;7.472;2022-12-18T18:02:31;100670.56;;;-0.99;100.00
58973;BME280;44750;52.040;7.472;2022-12-18T18:07:31;100665.41;;;-1.03;100.00
58973;BME280;44750;52.040;7.472;2022-12-18T18:12:32;100665.78;;;-0.93;100.00
58973;BME280;44750;52.040;7.472;2022-12-18T18:17:32;100647.94;;;-0.91;100.00
58973;BME280;44750;52.040;7.472;2022-12-18T18:22:33;100644.28;;;-0.88;100.00
58973;BME280;44750;52.040;7.472;2022-12-18T18:27:33;100622.16;;;-0.89;100.00
58973;BME280;44750;52.040;7.472;2022-12-18T18:32:33;100618.22;;;-0.81;100.00
58973;BME280;44750;52.040;7.472;2022-12-18T18:37:34;100616.28;;;-0.78;100.00
58973;BME280;44750;52.040;7.472;2022-12-18T18:42:34;100612.78;;;-0.62;100.00
58973;BME280;44750;52.040;7.472;2022-12-18T18:47:34;100593.91;;;-0.58;100.00
58973;BME280;44750;52.040;7.472;2022-12-18T18:52:34;100572.31;;;-0.68;100.00
58973;BME280;44750;52.040;7.472;2022-12-18T18:57:34;100591.16;;;-0.56;100.00
58973;BME280;44750;52.040;7.472;2022-12-18T19:02:35;100582.44;;;-0.58;100.00
58973;BME280;44750;52.040;7.472;2022-12-18T19:07:35;100592.88;;;-0.55;100.00
58973;BME280;44750;52.040;7.472;2022-12-18T19:12:35;100604.41;;;-0.55;100.00
58973;BME280;44750;52.040;7.472;2022-12-18T19:17:35;100592.38;;;-0.62;100.00
58973;BME280;44750;52.040;7.472;2022-12-18T19:22:36;100604.47;;;-0.56;100.00
58973;BME280;44750;52.040;7.472;2022-12-18T19:27:37;100596.56;;;-0.58;100.00
58973;BME280;44750;52.040;7.472;2022-12-18T19:32:37;100601.28;;;-0.63;100.00
58973;BME280;44750;52.040;7.472;2022-12-18T19:37:38;100578.81;;;-0.73;100.00
58973;BME280;44750;52.040;7.472;2022-12-18T19:42:38;100595.81;;;-0.60;100.00
58973;BME280;44750;52.040;7.472;2022-12-18T19:47:38;100598.53;;;-0.61;100.00
58973;BME280;44750;52.040;7.472;2022-12-18T19:52:39;100588.00;;;-0.63;100.00
58973;BME280;44750;52.040;7.472;2022-12-18T19:57:39;100593.16;;;-0.60;100.00
58973;BME280;44750;52.040;7.472;2022-12-18T20:02:39;100607.06;;;-0.55;100.00
58973;BME280;44750;52.040;7.472;2022-12-18T20:07:39;100607.63;;;-0.49;100.00
58973;BME280;44750;52.040;7.472;2022-12-18T20:12:40;100603.09;;;-0.47;100.00
58973;BME280;44750;52.040;7.472;2022-12-18T20:17:42;100620.09;;;-0.34;100.00
58973;BME280;44750;52.040;7.472;2022-12-18T20:22:43;100592.81;;;-0.38;100.00
58973;BME280;44750;52.040;7.472;2022-12-18T20:27:43;100599.59;;;-0.32;100.00
58973;BME280;44750;52.040;7.472;2022-12-18T20:32:43;100611.94;;;-0.31;100.00
58973;BME280;44750;52.040;7.472;2022-12-18T20:37:44;100604.94;;;-0.32;100.00
58973;BME280;44750;52.040;7.472;2022-12-18T20:42:44;100607.41;;;-0.29;100.00
58973;BME280;44750;52.040;7.472;2022-12-18T20:47:44;100628.31;;;-0.23;100.00
58973;BME280;44750;52.040;7.472;2022-12-18T20:52:46;100644.03;;;-0.18;100.00
58973;BME280;44750;52.040;7.472;2022-12-18T20:57:46;100654.78;;;-0.20;100.00
58973;BME280;44750;52.040;7.472;2022-12-18T21:02:46;100635.72;;;-0.28;100.00
58973;BME280;44750;52.040;7.472;2022-12-18T21:07:47;100647.72;;;-0.21;100.00
58973;BME280;44750;52.040;7.472;2022-12-18T21:12:47;100652.97;;;-0.19;100.00
58973;BME280;44750;52.040;7.472;2022-12-18T21:17:47;100660.94;;;-0.19;100.00
58973;BME280;44750;52.040;7.472;2022-12-18T21:22:47;100662.56;;;-0.17;100.00
58973;BME280;44750;52.040;7.472;2022-12-18T21:27:48;100653.91;;;-0.20;100.00
58973;BME280;44750;52.040;7.472;2022-12-18T21:32:48;100665.94;;;-0.13;100.00
58973;BME280;44750;52.040;7.472;2022-12-18T21:37:48;100673.03;;;-0.13;100.00
58973;BME280;44750;52.040;7.472;2022-12-18T21:42:48;100677.28;;;-0.09;100.00
58973;BME280;44750;52.040;7.472;2022-12-18T21:47:49;100675.69;;;-0.13;100.00
58973;BME280;44750;52.040;7.472;2022-12-18T21:52:49;100694.84;;;-0.07;100.00
58973;BME280;44750;52.040;7.472;2022-12-18T21:57:49;100675.69;;;-0.13;100.00
58973;BME280;44750;52.040;7.472;2022-12-18T22:02:50;100681.81;;;-0.11;100.00
58973;BME280;44750;52.040;7.472;2022-12-18T22:07:50;100694.84;;;-0.07;100.00
58973;BME280;44750;52.040;7.472;2022-12-18T22:12:50;100688.69;;;-0.07;100.00
58973;BME280;44750;52.040;7.472;2022-12-18T22:17:53;100709.63;;;-0.01;100.00
58973;BME280;44750;52.040;7.472;2022-12-18T22:22:53;100717.84;;;-0.06;100.00
58973;BME280;44750;52.040;7.472;2022-12-18T22:27:54;100728.34;;;-0.03;100.00
58973;BME280;44750;52.040;7.472;2022-12-18T22:32:54;100710.16;;;-0.10;100.00
58973;BME280;44750;52.040;7.472;2022-12-18T22:37:57;100733.06;;;-0.08;100.00
58973;BME280;44750;52.040;7.472;2022-12-18T22:42:58;100743.94;;;-0.12;100.00
58973;BME280;44750;52.040;7.472;2022-12-18T22:47:58;100760.44;;;-0.06;100.00
58973;BME280;44750;52.040;7.472;2022-12-18T22:52:58;100758.78;;;-0.08;100.00
58973;BME280;44750;52.040;7.472;2022-12-18T22:57:58;100771.78;;;-0.02;100.00
58973;BME280;44750;52.040;7.472;2022-12-18T23:02:59;100761.47;;;-0.08;100.00
58973;BME280;44750;52.040;7.472;2022-12-18T23:07:59;100771.16;;;-0.07;100.00
58973;BME280;44750;52.040;7.472;2022-12-18T23:12:59;100776.06;;;0.01;100.00
58973;BME280;44750;52.040;7.472;2022-12-18T23:17:59;100774.19;;;0.03;97.76
58973;BME280;44750;52.040;7.472;2022-12-18T23:22:59;100770.84;;;-0.01;95.62
58973;BME280;44750;52.040;7.472;2022-12-18T23:28:00;100758.66;;;-0.05;92.34
58973;BME280;44750;52.040;7.472;2022-12-18T23:33:00;100754.78;;;0.01;89.40
58973;BME280;44750;52.040;7.472;2022-12-18T23:38:00;100773.50;;;-0.01;86.54
58973;BME280;44750;52.040;7.472;2022-12-18T23:43:00;100790.00;;;0.06;83.58
58973;BME280;44750;52.040;7.472;2022-12-18T23:48:00;100772.63;;;-0.02;80.88
58973;BME280;44750;52.040;7.472;2022-12-18T23:53:01;100768.00;;;0.02;78.60
58973;BME280;44750;52.040;7.472;2022-12-18T23:58:01;100764.41;;;0.03;75.76
